createdAt,value
2019-01-15T00:01:41.616Z,4.20
2019-01-15T00:04:11.467Z,3.60
2019-01-15T00:07:20.147Z,5.00
2019-01-15T00:10:09.357Z,3.97
2019-01-15T00:12:58.468Z,2.67
2019-01-15T00:15:47.593Z,3.80
2019-01-15T00:18:36.707Z,3.70
2019-01-15T00:21:25.850Z,3.40
2019-01-15T00:24:14.925Z,4.40
2019-01-15T00:27:04.053Z,3.70
2019-01-15T00:29:53.177Z,3.90
2019-01-15T00:32:42.296Z,3.20
2019-01-15T00:35:31.439Z,3.80
2019-01-15T00:38:14.224Z,4.40
2019-01-15T00:41:03.539Z,4.10
2019-01-15T00:43:52.686Z,4.17
2019-01-15T00:46:41.762Z,4.30
2019-01-15T00:49:30.872Z,4.30
2019-01-15T00:52:20.294Z,4.33
2019-01-15T00:58:25.233Z,3.77
2019-01-15T01:01:14.349Z,3.93
2019-01-15T01:07:13.194Z,4.00
2019-01-15T01:10:02.270Z,3.80
2019-01-15T01:12:51.402Z,5.60
2019-01-15T01:16:00.030Z,3.27
2019-01-15T01:18:49.129Z,4.13
2019-01-15T01:21:38.243Z,3.90
2019-01-15T01:24:27.698Z,3.47
2019-01-15T01:27:16.922Z,4.20
2019-01-15T01:30:47.155Z,3.50
2019-01-15T01:33:36.515Z,3.93
2019-01-15T01:36:18.316Z,3.73
2019-01-15T01:39:47.937Z,4.37
2019-01-15T01:42:37.020Z,4.90
2019-01-15T01:45:45.394Z,2.90
2019-01-15T01:48:34.481Z,4.40
2019-01-15T01:51:23.849Z,3.63
2019-01-15T01:54:12.965Z,3.97
2019-01-15T01:57:02.164Z,3.80
2019-01-15T01:59:51.561Z,4.17
2019-01-15T02:02:40.662Z,4.40
2019-01-15T02:08:24.392Z,3.50
2019-01-15T02:11:32.492Z,4.73
2019-01-15T02:14:21.880Z,5.47
2019-01-15T02:17:11.003Z,4.07
2019-01-15T02:20:00.239Z,4.00
2019-01-15T02:26:05.302Z,6.53
2019-01-15T02:28:54.427Z,4.40
2019-01-15T02:31:43.835Z,3.70
2019-01-15T02:34:33.176Z,4.40
2019-01-15T02:37:14.941Z,3.93
2019-01-15T02:43:33.330Z,2.93
2019-01-15T02:46:22.675Z,4.20
2019-01-15T02:49:11.785Z,3.83
2019-01-15T02:52:00.910Z,3.90
2019-01-15T02:54:50.017Z,3.97
2019-01-15T02:57:39.199Z,4.87
2019-01-15T03:00:28.360Z,3.60
2019-01-15T03:03:17.486Z,3.80
2019-01-15T03:06:06.572Z,4.10
2019-01-15T03:08:55.943Z,3.13
2019-01-15T03:11:45.587Z,3.83
2019-01-15T03:14:34.680Z,4.60
2019-01-15T03:17:23.802Z,3.60
2019-01-15T03:20:13.214Z,3.80
2019-01-15T03:23:02.710Z,4.47
2019-01-15T03:25:51.850Z,4.10
2019-01-15T03:28:41.032Z,3.80
2019-01-15T03:31:30.143Z,3.60
2019-01-15T03:34:19.561Z,3.73
2019-01-15T03:37:01.872Z,3.83
2019-01-15T03:40:10.475Z,4.10
2019-01-15T03:43:03.808Z,4.90
2019-01-15T03:45:50.993Z,3.93
2019-01-15T03:48:40.079Z,3.20
2019-01-15T03:51:30.492Z,4.13
2019-01-15T03:54:20.587Z,3.10
2019-01-15T03:57:09.714Z,4.00
2019-01-15T03:59:59.155Z,3.20
2019-01-15T04:06:04.322Z,4.83
2019-01-15T04:08:53.667Z,3.63
2019-01-15T04:11:43.062Z,3.90
2019-01-15T04:14:32.171Z,3.87
2019-01-15T04:17:21.603Z,3.93
2019-01-15T04:20:51.746Z,3.60
2019-01-15T04:23:40.920Z,4.40
2019-01-15T04:26:29.995Z,3.10
2019-01-15T04:29:19.103Z,3.70
2019-01-15T04:32:08.512Z,3.60
2019-01-15T04:34:57.617Z,3.90
2019-01-15T04:37:40.518Z,3.23
2019-01-15T04:40:29.945Z,3.23
2019-01-15T04:43:19.802Z,3.27
2019-01-15T04:46:09.831Z,4.03
2019-01-15T04:48:58.967Z,3.07
2019-01-15T04:51:48.060Z,3.13
2019-01-15T04:54:37.157Z,3.30
2019-01-15T04:57:26.280Z,4.17
2019-01-15T05:00:56.251Z,4.13
2019-01-15T05:03:45.667Z,3.90
2019-01-15T05:06:34.813Z,3.77
2019-01-15T05:09:24.319Z,3.83
2019-01-15T05:12:13.391Z,3.70
2019-01-15T05:15:22.037Z,5.73
2019-01-15T05:18:30.899Z,3.37
2019-01-15T05:21:20.609Z,4.43
2019-01-15T05:24:09.738Z,4.53
2019-01-15T05:26:58.856Z,3.70
2019-01-15T05:29:48.303Z,2.83
2019-01-15T05:32:37.390Z,2.60
2019-01-15T05:35:26.505Z,3.10
2019-01-15T05:38:08.280Z,2.43
2019-01-15T05:40:57.401Z,2.40
2019-01-15T05:43:46.495Z,2.37
2019-01-15T05:46:35.919Z,2.80
2019-01-15T05:49:25.301Z,3.20
2019-01-15T05:52:14.426Z,2.63
2019-01-15T05:55:03.590Z,3.17
2019-01-15T05:57:53.006Z,3.00
2019-01-15T06:03:52.144Z,3.60
2019-01-15T06:06:41.595Z,2.90
2019-01-15T06:09:12.500Z,2.37
2019-01-15T06:11:42.312Z,2.07
2019-01-15T06:14:12.399Z,5.03
2019-01-15T06:16:45.722Z,2.30
2019-01-15T06:19:16.366Z,2.00
2019-01-15T06:21:46.942Z,3.23
2019-01-15T06:24:17.374Z,2.40
2019-01-15T06:26:47.225Z,3.20
2019-01-15T06:29:17.360Z,4.60
2019-01-15T06:31:47.260Z,2.87
2019-01-15T06:34:17.429Z,3.60
2019-01-15T06:36:47.559Z,3.00
2019-01-15T06:39:17.408Z,3.10
2019-01-15T06:41:47.310Z,3.33
2019-01-15T06:44:17.165Z,2.67
2019-01-15T06:46:47.037Z,2.83
2019-01-15T06:49:16.900Z,3.00
2019-01-15T06:51:46.772Z,3.00
2019-01-15T06:54:16.597Z,2.70
2019-01-15T06:56:46.486Z,2.70
2019-01-15T06:59:16.686Z,2.30
2019-01-15T07:01:46.790Z,3.00
2019-01-15T07:04:16.682Z,2.73
2019-01-15T07:06:46.564Z,2.13
2019-01-15T07:09:16.522Z,2.07
2019-01-15T07:11:46.381Z,2.30
2019-01-15T07:14:16.596Z,3.30
2019-01-15T07:16:46.673Z,2.70
2019-01-15T07:19:16.621Z,3.00
2019-01-15T07:21:47.081Z,3.07
2019-01-15T07:24:17.259Z,2.50
2019-01-15T07:26:47.486Z,2.40
2019-01-15T07:29:17.639Z,2.50
2019-01-15T07:31:47.631Z,2.67
2019-01-15T07:34:17.811Z,3.30
2019-01-15T07:36:47.735Z,3.10
2019-01-15T07:39:17.636Z,2.93
2019-01-15T07:41:47.500Z,3.67
2019-01-15T07:44:17.355Z,3.53
2019-01-15T07:46:47.286Z,4.13
2019-01-15T07:49:17.182Z,4.00
2019-01-15T07:51:47.057Z,4.57
2019-01-15T07:54:16.908Z,4.50
2019-01-15T07:56:47.184Z,4.30
2019-01-15T07:59:17.030Z,4.70
2019-01-15T08:01:47.453Z,4.50
2019-01-15T08:04:17.370Z,4.60
2019-01-15T08:06:47.254Z,4.37
2019-01-15T08:09:17.315Z,4.90
2019-01-15T08:11:47.437Z,4.30
2019-01-15T08:14:17.336Z,4.57
2019-01-15T08:16:47.251Z,4.13
2019-01-15T08:19:17.734Z,3.83
2019-01-15T08:21:47.849Z,4.90
2019-01-15T08:24:18.001Z,3.93
2019-01-15T08:26:47.904Z,4.67
2019-01-15T08:29:17.837Z,4.00
2019-01-15T08:31:47.716Z,4.30
2019-01-15T08:34:17.626Z,5.23
2019-01-15T08:36:47.460Z,5.30
2019-01-15T08:39:17.305Z,5.27
2019-01-15T08:41:47.480Z,5.20
2019-01-15T08:44:19.322Z,5.80
2019-01-15T08:46:49.184Z,6.03
2019-01-15T08:49:19.111Z,5.23
2019-01-15T08:51:49.379Z,5.30
2019-01-15T08:54:19.234Z,5.83
2019-01-15T08:56:49.071Z,5.13
2019-01-15T08:59:18.917Z,5.03
2019-01-15T09:01:48.750Z,4.83
2019-01-15T09:04:18.633Z,4.70
2019-01-15T09:06:48.774Z,5.60
2019-01-15T09:09:18.624Z,5.63
2019-01-15T09:11:48.561Z,5.10
2019-01-15T09:14:18.475Z,5.57
2019-01-15T09:16:48.321Z,5.40
2019-01-15T09:19:18.179Z,6.00
2019-01-15T09:21:48.043Z,6.40
2019-01-15T09:24:17.885Z,5.40
2019-01-15T09:26:47.767Z,5.73
2019-01-15T09:29:18.009Z,5.53
2019-01-15T09:31:47.861Z,5.20
2019-01-15T09:34:17.850Z,5.63
2019-01-15T09:36:47.712Z,5.97
2019-01-15T09:39:17.576Z,5.40
2019-01-15T09:41:47.553Z,6.50
2019-01-15T09:44:17.416Z,6.27
2019-01-15T09:46:47.612Z,6.70
2019-01-15T09:49:17.454Z,7.70
2019-01-15T09:51:47.336Z,7.50
2019-01-15T09:54:17.609Z,6.90
2019-01-15T09:56:47.459Z,6.80
2019-01-15T09:59:17.318Z,6.40
2019-01-15T10:01:47.346Z,6.80
2019-01-15T10:04:17.221Z,6.93
2019-01-15T10:06:47.058Z,7.10
2019-01-15T10:09:17.064Z,8.20
2019-01-15T10:11:47.031Z,7.97
2019-01-15T10:14:16.874Z,7.70
2019-01-15T10:16:47.012Z,8.67
2019-01-15T10:19:16.872Z,8.80
2019-01-15T10:21:48.730Z,8.17
2019-01-15T10:24:18.606Z,8.70
2019-01-15T10:26:48.531Z,9.27
2019-01-15T10:29:19.282Z,8.80
2019-01-15T10:32:44.728Z,9.50
2019-01-15T10:35:24.017Z,10.27
2019-01-15T10:37:54.563Z,11.17
2019-01-15T10:40:24.465Z,11.60
2019-01-15T10:42:54.647Z,11.13
2019-01-15T10:45:25.545Z,11.40
2019-01-15T10:47:57.310Z,11.90
2019-01-15T10:50:27.627Z,12.37
2019-01-15T10:52:57.498Z,11.17
2019-01-15T10:55:27.377Z,11.70
2019-01-15T10:57:58.434Z,11.40
2019-01-15T11:00:28.652Z,12.70
2019-01-15T11:02:58.535Z,13.10
2019-01-15T11:05:28.488Z,12.27
2019-01-15T11:07:58.387Z,13.07
2019-01-15T11:10:28.247Z,12.20
2019-01-15T11:12:58.136Z,13.60
2019-01-15T11:15:28.588Z,12.73
2019-01-15T11:17:58.563Z,13.27
2019-01-15T11:20:28.511Z,13.30
2019-01-15T11:22:58.378Z,13.33
2019-01-15T11:25:28.242Z,14.87
2019-01-15T11:27:58.406Z,14.13
2019-01-15T11:30:28.303Z,13.60
2019-01-15T11:32:58.201Z,14.20
2019-01-15T11:35:28.395Z,15.30
2019-01-15T11:37:58.319Z,14.27
2019-01-15T11:40:28.268Z,15.03
2019-01-15T11:42:58.126Z,14.70
2019-01-15T11:45:28.263Z,14.93
2019-01-15T11:47:58.117Z,15.40
2019-01-15T11:50:28.005Z,15.23
2019-01-15T11:52:58.082Z,15.20
2019-01-15T11:55:28.329Z,16.20
2019-01-15T11:57:58.545Z,14.27
2019-01-15T12:00:42.965Z,17.00
2019-01-15T12:03:33.540Z,15.03
2019-01-15T12:06:31.408Z,14.87
2019-01-15T12:09:15.148Z,14.80
2019-01-15T12:12:03.039Z,16.20
2019-01-15T12:14:55.053Z,17.87
2019-01-15T12:17:33.878Z,16.00
2019-01-15T12:20:35.353Z,17.10
2019-01-15T12:23:15.273Z,16.43
2019-01-15T12:26:07.033Z,18.87
2019-01-15T12:28:46.623Z,16.90
2019-01-15T12:31:34.467Z,18.17
2019-01-15T12:34:23.451Z,18.00
2019-01-15T12:37:15.196Z,18.63
2019-01-15T12:40:02.619Z,18.17
2019-01-15T12:42:51.897Z,17.47
2019-01-15T12:45:33.134Z,21.30
2019-01-15T12:48:20.793Z,18.43
2019-01-15T12:51:06.243Z,19.50
2019-01-15T12:53:53.564Z,18.90
2019-01-15T12:56:42.362Z,17.17
2019-01-15T12:59:37.347Z,20.50
2019-01-15T13:02:32.258Z,19.13
2019-01-15T13:05:24.094Z,18.80
2019-01-15T13:08:28.419Z,18.73
2019-01-15T13:11:16.003Z,18.93
2019-01-15T13:13:58.627Z,18.20
2019-01-15T13:16:42.663Z,17.53
2019-01-15T13:19:30.949Z,17.87
2019-01-15T13:22:19.098Z,15.53
2019-01-15T13:25:02.641Z,16.80
2019-01-15T13:27:50.690Z,15.30
2019-01-15T13:30:31.022Z,17.37
2019-01-15T13:33:08.073Z,16.60
2019-01-15T13:35:56.132Z,16.40
2019-01-15T13:38:52.799Z,16.47
2019-01-15T13:41:29.962Z,18.00
2019-01-15T13:44:13.858Z,18.10
2019-01-15T13:47:01.758Z,16.90
2019-01-15T13:49:53.626Z,17.40
2019-01-15T13:53:01.254Z,16.27
2019-01-15T13:55:42.526Z,16.40
2019-01-15T13:58:27.409Z,16.43
2019-01-15T14:01:15.049Z,18.57
2019-01-15T14:04:04.736Z,15.67
2019-01-15T14:06:56.708Z,16.27
2019-01-15T14:09:36.148Z,16.23
2019-01-15T14:12:17.342Z,16.83
2019-01-15T14:15:05.222Z,15.43
2019-01-15T14:17:53.127Z,13.90
2019-01-15T14:20:45.096Z,14.77
2019-01-15T14:23:52.482Z,13.67
2019-01-15T14:26:36.520Z,14.00
2019-01-15T14:29:24.076Z,15.10
2019-01-15T14:32:04.115Z,14.37
2019-01-15T14:34:51.902Z,15.07
2019-01-15T14:37:44.202Z,14.83
2019-01-15T14:40:23.959Z,16.60
2019-01-15T14:43:15.934Z,14.40
2019-01-15T14:46:07.567Z,14.70
2019-01-15T14:48:55.355Z,14.53
2019-01-15T14:51:52.348Z,14.17
2019-01-15T14:54:31.312Z,14.87
2019-01-15T14:57:29.520Z,14.20
2019-01-15T15:00:15.373Z,13.00
2019-01-15T15:03:04.153Z,13.83
2019-01-15T15:05:42.634Z,13.97
2019-01-15T15:08:37.887Z,13.73
2019-01-15T15:11:25.805Z,13.13
2019-01-15T15:14:13.635Z,12.20
2019-01-15T15:17:03.129Z,16.67
2019-01-15T15:19:55.857Z,14.53
2019-01-15T15:22:43.492Z,15.17
2019-01-15T15:25:32.364Z,14.30
2019-01-15T15:28:19.876Z,15.00
2019-01-15T15:31:10.424Z,13.87
2019-01-15T15:33:57.818Z,13.90
2019-01-15T15:36:56.623Z,12.63
2019-01-15T15:39:34.305Z,13.93
2019-01-15T15:42:32.623Z,12.80
2019-01-15T15:45:20.922Z,12.67
2019-01-15T15:48:24.396Z,13.97
2019-01-15T15:51:12.663Z,13.30
2019-01-15T15:54:00.579Z,12.60
2019-01-15T15:56:52.644Z,12.37
2019-01-15T15:59:40.750Z,12.73
2019-01-15T16:02:32.911Z,12.37
2019-01-15T16:05:27.050Z,14.07
2019-01-15T16:08:16.344Z,13.00
2019-01-15T16:11:04.756Z,13.47
2019-01-15T16:13:56.448Z,12.90
2019-01-15T16:16:57.465Z,12.70
2019-01-15T16:19:45.145Z,13.83
2019-01-15T16:22:25.600Z,12.90
2019-01-15T16:25:26.677Z,15.10
2019-01-15T16:28:07.261Z,14.73
2019-01-15T16:31:05.454Z,15.73
2019-01-15T16:34:01.822Z,15.50
2019-01-15T16:36:59.319Z,16.10
2019-01-15T16:39:47.095Z,16.67
2019-01-15T16:42:51.319Z,16.90
2019-01-15T16:45:39.122Z,16.80
2019-01-15T16:48:18.491Z,16.80
2019-01-15T16:50:55.920Z,18.93
2019-01-15T16:53:43.978Z,19.00
2019-01-15T16:56:35.836Z,19.90
2019-01-15T16:59:35.082Z,21.30
2019-01-15T17:02:22.917Z,21.37
2019-01-15T17:05:10.406Z,21.10
2019-01-15T17:07:59.283Z,20.97
2019-01-15T17:10:39.336Z,20.83
2019-01-15T17:13:36.268Z,20.03
2019-01-15T17:16:20.179Z,19.73
2019-01-15T17:19:07.971Z,19.20
2019-01-15T17:21:51.560Z,19.57
2019-01-15T17:24:52.419Z,19.03
2019-01-15T17:27:44.550Z,19.03
2019-01-15T17:30:37.980Z,20.23
2019-01-15T17:33:26.305Z,22.60
2019-01-15T17:36:15.202Z,18.60
2019-01-15T17:39:03.061Z,18.93
2019-01-15T17:42:10.725Z,19.23
2019-01-15T17:44:48.341Z,20.23
2019-01-15T17:47:36.388Z,20.93
2019-01-15T17:50:48.431Z,20.57
2019-01-15T17:53:35.842Z,21.50
2019-01-15T17:56:24.783Z,20.80
2019-01-15T17:59:11.452Z,22.43
2019-01-15T18:02:05.412Z,22.23
2019-01-15T18:04:56.093Z,22.17
2019-01-15T18:07:50.871Z,25.20
2019-01-15T18:10:46.832Z,24.53
2019-01-15T18:13:47.908Z,25.27
2019-01-15T18:16:38.474Z,23.60
2019-01-15T18:19:35.650Z,24.83
2019-01-15T18:22:21.023Z,25.27
2019-01-15T18:25:00.767Z,24.90
2019-01-15T18:27:43.876Z,24.20
2019-01-15T18:30:45.199Z,24.20
2019-01-15T18:33:42.404Z,24.77
2019-01-15T18:36:40.722Z,25.20
2019-01-15T18:39:28.288Z,26.50
2019-01-15T18:42:15.861Z,26.67
2019-01-15T18:44:57.404Z,27.20
2019-01-15T18:47:55.047Z,27.27
2019-01-15T18:50:43.915Z,28.33
2019-01-15T18:53:33.353Z,28.47
2019-01-15T18:56:31.669Z,30.20
2019-01-15T18:59:19.865Z,29.13
2019-01-15T19:02:11.486Z,27.80
2019-01-15T19:04:54.867Z,25.70
2019-01-15T19:07:42.567Z,28.70
2019-01-15T19:10:43.878Z,27.70
2019-01-15T19:13:21.707Z,28.47
2019-01-15T19:16:23.009Z,30.43
2019-01-15T19:19:21.140Z,27.00
2019-01-15T19:22:22.747Z,29.37
2019-01-15T19:25:24.758Z,33.00
2019-01-15T19:28:12.186Z,29.53
2019-01-15T19:30:56.914Z,30.00
2019-01-15T19:33:49.817Z,29.13
2019-01-15T19:36:37.681Z,30.03
2019-01-15T19:39:27.764Z,25.70
2019-01-15T19:42:10.111Z,30.63
2019-01-15T19:44:59.196Z,27.73
2019-01-15T19:47:49.565Z,26.80
2019-01-15T19:50:31.718Z,27.73
2019-01-15T19:53:16.364Z,27.33
2019-01-15T19:56:01.603Z,29.20
2019-01-15T19:58:53.523Z,27.43
2019-01-15T20:01:52.075Z,27.90
2019-01-15T20:04:53.312Z,25.30
2019-01-15T20:07:41.351Z,23.80
2019-01-15T20:10:29.639Z,25.00
2019-01-15T20:13:28.310Z,24.20
2019-01-15T20:16:18.065Z,24.30
2019-01-15T20:19:08.612Z,23.00
2019-01-15T20:21:56.287Z,23.40
2019-01-15T20:24:55.182Z,23.27
2019-01-15T20:27:54.641Z,23.40
2019-01-15T20:30:40.360Z,22.83
2019-01-15T20:33:22.088Z,22.90
2019-01-15T20:36:14.923Z,24.20
2019-01-15T20:39:12.729Z,24.23
2019-01-15T20:42:07.691Z,23.37
2019-01-15T20:45:05.617Z,24.13
2019-01-15T20:48:03.522Z,22.43
2019-01-15T20:50:48.750Z,22.93
2019-01-15T20:53:37.555Z,23.17
2019-01-15T20:56:25.135Z,23.33
2019-01-15T20:59:03.030Z,22.20
2019-01-15T21:01:48.214Z,23.90
2019-01-15T21:04:43.400Z,23.67
2019-01-15T21:07:31.201Z,22.10
2019-01-15T21:10:18.946Z,23.47
2019-01-15T21:13:12.417Z,22.23
2019-01-15T21:16:04.388Z,24.47
2019-01-15T21:18:49.274Z,22.20
2019-01-15T21:21:29.861Z,22.53
2019-01-15T21:24:19.880Z,23.23
2019-01-15T21:27:17.702Z,25.40
2019-01-15T21:30:03.351Z,21.97
2019-01-15T21:32:51.184Z,21.37
2019-01-15T21:35:46.500Z,21.43
2019-01-15T21:38:34.203Z,22.83
2019-01-15T21:41:29.193Z,22.00
2019-01-15T21:44:27.257Z,22.00
2019-01-15T21:47:14.798Z,23.70
2019-01-15T21:49:55.619Z,24.27
2019-01-15T21:52:47.875Z,23.27
2019-01-15T21:55:34.153Z,23.70
2019-01-15T21:58:19.671Z,22.33
2019-01-15T22:01:11.581Z,20.63
2019-01-15T22:03:59.238Z,21.70
2019-01-15T22:06:38.604Z,21.00
2019-01-15T22:09:27.604Z,20.10
2019-01-15T22:12:26.231Z,19.00
2019-01-15T22:15:14.136Z,19.43
2019-01-15T22:17:53.447Z,19.43
2019-01-15T22:20:51.434Z,18.87
2019-01-15T22:23:52.824Z,19.03
2019-01-15T22:26:40.347Z,21.17
2019-01-15T22:29:41.139Z,20.00
2019-01-15T22:32:28.478Z,20.47
2019-01-15T22:35:25.286Z,20.80
2019-01-15T22:38:10.556Z,19.63
2019-01-15T22:40:59.388Z,20.37
2019-01-15T22:44:03.532Z,18.33
2019-01-15T22:46:55.814Z,16.80
2019-01-15T22:49:59.912Z,18.00
2019-01-15T22:52:39.709Z,19.80
2019-01-15T22:55:28.898Z,18.77
2019-01-15T22:58:11.525Z,17.70
2019-01-15T23:01:03.607Z,19.17
2019-01-15T23:03:51.360Z,17.40
2019-01-15T23:06:39.294Z,18.07
2019-01-15T23:09:45.582Z,18.67
2019-01-15T23:12:33.214Z,18.57
2019-01-15T23:15:12.924Z,15.00
2019-01-15T23:17:53.769Z,15.30
2019-01-15T23:20:41.635Z,15.43
2019-01-15T23:23:29.532Z,15.30
2019-01-15T23:26:12.375Z,15.80
2019-01-15T23:29:01.236Z,15.93
2019-01-15T23:31:37.947Z,16.10
2019-01-15T23:34:28.373Z,15.70
2019-01-15T23:37:23.159Z,15.13
2019-01-15T23:40:10.635Z,14.63
2019-01-15T23:43:14.852Z,14.10
2019-01-15T23:46:10.704Z,15.07
2019-01-15T23:48:58.338Z,14.70
2019-01-15T23:51:46.560Z,15.03
2019-01-15T23:54:44.836Z,13.00
2019-01-15T23:57:27.696Z,14.13
